Time;durP1;ratioP1;P1;durP2;ratioP2;P2;SDS_P1;SDS_P2;PMS_P1;PMS_P2;Temp;Humidity;BMP_temperature;BMP_pressure;BME280_temperature;BME280_humidity;BME280_pressure;Samples;Min_cycle;Max_cycle;Signal;HPM_P1;HPM_P2
2021/12/17 00:01:01;;;;;;;77.00;54.85;;;17.50;62.60;;;;;;5007354;27;85344;-67
2021/12/17 00:03:44;;;;;;;75.40;54.15;;;17.40;62.40;;;;;;5007040;27;86632;-67
2021/12/17 00:06:29;;;;;;;76.05;54.47;;;17.40;62.30;;;;;;4996976;27;85010;-67
2021/12/17 00:08:56;;;;;;;76.20;55.40;;;17.40;62.70;;;;;;5003220;27;86423;-68
2021/12/17 00:11:22;;;;;;;75.28;54.88;;;17.40;62.50;;;;;;5005362;27;86965;-68
2021/12/17 00:13:49;;;;;;;75.45;54.58;;;17.30;62.60;;;;;;5003617;27;85544;-67
2021/12/17 00:16:20;;;;;;;76.15;55.10;;;17.30;62.80;;;;;;5002811;27;86208;-67
2021/12/17 00:19:13;;;;;;;76.57;55.17;;;17.30;62.60;;;;;;5007297;28;86345;-67
2021/12/17 00:48:56;;;;;;;73.82;53.67;;;17.10;62.70;;;;;;5008079;27;86378;-67
2021/12/17 00:54:28;;;;;;;73.65;54.17;;;17.10;62.90;;;;;;4997945;27;90519;-67
2021/12/17 00:56:56;;;;;;;73.30;53.30;;;17.10;62.70;;;;;;5002037;27;85633;-67
2021/12/17 00:59:22;;;;;;;72.43;53.40;;;17.00;62.50;;;;;;5004782;27;86169;-67
2021/12/17 01:01:51;;;;;;;73.53;53.35;;;17.00;62.70;;;;;;4997059;28;85946;-68
2021/12/17 01:04:22;;;;;;;66.47;48.07;;;17.00;62.80;;;;;;3713582;27;10108647;-68
2021/12/17 01:06:48;;;;;;;74.78;53.65;;;17.00;62.70;;;;;;1677822;28;10088164;-68
2021/12/17 01:09:17;;;;;;;73.90;53.80;;;17.00;62.90;;;;;;4942072;28;86538;-67
2021/12/17 01:11:44;;;;;;;73.90;53.60;;;17.00;62.80;;;;;;4951394;28;91755;-67
2021/12/17 01:14:10;;;;;;;74.13;53.67;;;16.90;62.80;;;;;;4945085;28;86164;-68
2021/12/17 01:16:36;;;;;;;73.30;53.72;;;16.90;62.80;;;;;;4949667;28;85610;-68
2021/12/17 01:24:29;;;;;;;72.70;53.20;;;16.90;63.00;;;;;;4948868;28;88020;-68
2021/12/17 01:35:22;;;;;;;72.45;53.30;;;16.80;63.00;;;;;;4949855;28;85174;-69
2021/12/17 01:43:01;;;;;;;72.18;53.05;;;16.80;63.20;;;;;;4948398;28;85428;-67
2021/12/17 01:45:32;;;;;;;72.30;53.05;;;16.80;62.90;;;;;;4948516;28;85524;-67
2021/12/17 01:48:01;;;;;;;71.80;52.73;;;16.70;62.80;;;;;;4951477;28;85029;-67
2021/12/17 01:56:17;;;;;;;72.32;53.03;;;16.70;62.90;;;;;;4949131;28;85853;-67
2021/12/17 02:01:30;;;;;;;72.10;52.92;;;16.60;62.80;;;;;;4949359;28;85816;-68
2021/12/17 02:03:56;;;;;;;72.15;52.35;;;16.70;62.90;;;;;;4949635;28;85821;-67
2021/12/17 02:06:23;;;;;;;72.00;52.33;;;16.60;62.80;;;;;;4941819;28;85402;-67
2021/12/17 02:08:50;;;;;;;72.13;52.25;;;16.60;62.90;;;;;;4937689;28;85707;-67
2021/12/17 02:32:49;;;;;;;72.65;52.38;;;16.50;63.10;;;;;;4949638;28;86648;-67
2021/12/17 02:35:40;;;;;;;72.13;52.72;;;16.50;62.90;;;;;;4952138;28;85726;-67
2021/12/17 02:38:07;;;;;;;70.60;51.92;;;16.40;62.70;;;;;;4944920;28;86542;-67
2021/12/17 02:45:46;;;;;;;72.18;52.88;;;16.40;63.00;;;;;;4953981;28;90842;-67
2021/12/17 02:48:17;;;;;;;72.40;53.05;;;16.40;62.90;;;;;;4953498;28;87096;-68
2021/12/17 02:50:47;;;;;;;73.25;53.00;;;16.40;63.00;;;;;;4951204;28;85404;-67
2021/12/17 02:53:13;;;;;;;71.22;52.42;;;16.40;63.20;;;;;;4951959;28;85953;-67
2021/12/17 02:55:46;;;;;;;71.40;52.60;;;16.40;62.90;;;;;;4948252;28;85323;-68
2021/12/17 02:58:12;;;;;;;70.50;52.15;;;16.40;62.80;;;;;;4944114;28;87316;-67
2021/12/17 03:00:41;;;;;;;72.35;52.55;;;16.30;62.80;;;;;;4945716;28;85468;-67
2021/12/17 03:03:08;;;;;;;72.38;52.63;;;16.30;62.80;;;;;;4945586;28;85445;-68
2021/12/17 03:05:36;;;;;;;71.95;52.72;;;16.30;62.80;;;;;;4947820;28;85015;-67
2021/12/17 03:08:02;;;;;;;72.53;53.05;;;16.30;62.90;;;;;;4941631;28;85601;-67
2021/12/17 03:10:28;;;;;;;71.47;52.55;;;16.30;63.10;;;;;;4945666;28;86538;-67
2021/12/17 03:13:00;;;;;;;71.82;52.63;;;16.30;62.80;;;;;;4951243;28;85464;-68
2021/12/17 03:25:53;;;;;;;72.10;52.47;;;16.20;63.10;;;;;;4948300;28;86960;-67
2021/12/17 03:28:20;;;;;;;72.78;52.78;;;16.20;63.20;;;;;;4944712;28;90782;-68
2021/12/17 03:30:46;;;;;;;71.60;52.58;;;16.10;63.10;;;;;;4953469;28;85211;-67
2021/12/17 03:33:12;;;;;;;70.47;52.28;;;16.20;62.90;;;;;;4949774;28;85375;-67
2021/12/17 03:35:38;;;;;;;71.28;52.95;;;16.20;62.90;;;;;;4956679;28;89826;-68
2021/12/17 03:38:05;;;;;;;71.63;52.58;;;16.10;62.80;;;;;;4939451;28;85974;-67
2021/12/17 03:40:33;;;;;;;71.35;52.50;;;16.10;62.80;;;;;;4939752;28;86643;-67
2021/12/17 03:43:04;;;;;;;72.25;52.63;;;16.10;62.80;;;;;;4949857;28;85469;-67
2021/12/17 03:45:30;;;;;;;;;;;16.10;62.90;;;;;;4951706;28;86529;-67
2021/12/17 03:47:57;;;;;;;70.68;52.47;;;16.10;63.00;;;;;;4953583;28;85178;-68
2021/12/17 03:50:23;;;;;;;71.15;52.83;;;16.10;63.00;;;;;;4959006;28;86238;-67
2021/12/17 03:52:50;;;;;;;70.60;52.13;;;16.10;63.10;;;;;;4961379;28;85346;-67
2021/12/17 03:55:16;;;;;;;71.68;52.70;;;16.10;62.80;;;;;;4950684;28;90044;-67
2021/12/17 03:57:41;;;;;;;72.18;52.60;;;16.10;62.70;;;;;;4946227;28;86685;-68
2021/12/17 04:00:09;;;;;;;71.25;52.70;;;16.10;62.80;;;;;;4943413;28;86606;-67
2021/12/17 04:02:35;;;;;;;71.60;52.72;;;16.10;63.00;;;;;;4955898;28;86870;-67
2021/12/17 04:05:02;;;;;;;70.93;52.20;;;16.10;62.40;;;;;;4966936;28;86086;-67
2021/12/17 04:07:28;;;;;;;71.03;52.63;;;16.20;62.30;;;;;;4945743;28;86614;-67
2021/12/17 04:09:53;;;;;;;71.63;52.38;;;16.30;62.20;;;;;;4945001;28;87487;-67
2021/12/17 04:12:23;;;;;;;71.55;52.75;;;16.40;61.90;;;;;;4949607;28;86224;-67
2021/12/17 04:14:49;;;;;;;71.22;52.33;;;16.40;61.60;;;;;;4947813;28;85602;-67
2021/12/17 04:17:22;;;;;;;71.07;52.35;;;16.50;61.50;;;;;;4955984;28;85698;-67
2021/12/17 04:19:48;;;;;;;70.32;52.10;;;16.60;61.20;;;;;;4949256;28;86782;-67
2021/12/17 04:22:14;;;;;;;71.00;52.78;;;16.70;61.80;;;;;;4949970;28;86448;-67
2021/12/17 04:24:40;;;;;;;70.82;52.72;;;16.70;60.70;;;;;;4944949;28;86697;-67
2021/12/17 04:27:06;;;;;;;70.53;52.13;;;16.70;60.40;;;;;;4951577;28;84502;-67
2021/12/17 04:29:33;;;;;;;70.57;52.40;;;16.80;60.50;;;;;;4944046;28;86974;-67
2021/12/17 04:31:59;;;;;;;70.95;52.45;;;16.80;60.10;;;;;;4951956;28;86277;-67
2021/12/17 04:34:25;;;;;;;70.15;52.25;;;16.80;60.20;;;;;;4949197;28;85519;-67
2021/12/17 04:36:54;;;;;;;70.45;52.53;;;16.80;60.00;;;;;;4954282;28;85883;-67
2021/12/17 04:39:22;;;;;;;71.32;52.50;;;16.90;59.80;;;;;;4939624;28;85561;-67
2021/12/17 04:41:54;;;;;;;70.88;51.67;;;16.90;59.60;;;;;;4958344;28;89054;-67
2021/12/17 04:46:57;;;;;;;70.30;51.88;;;16.90;59.70;;;;;;4950870;28;85255;-67
2021/12/17 04:57:38;;;;;;;71.53;52.22;;;16.80;59.60;;;;;;4952842;28;85832;-67
2021/12/17 05:00:30;;;;;;;69.75;51.88;;;16.80;59.50;;;;;;4950384;28;86627;-67
2021/12/17 05:02:59;;;;;;;70.32;52.05;;;16.80;59.50;;;;;;4948750;28;86860;-68
2021/12/17 05:05:29;;;;;;;70.78;51.90;;;16.80;59.60;;;;;;4953633;28;86069;-67
2021/12/17 05:08:03;;;;;;;70.30;51.92;;;16.70;59.60;;;;;;4948568;28;85356;-67
2021/12/17 05:11:13;;;;;;;70.32;51.75;;;16.70;59.60;;;;;;4935372;28;86243;-67
2021/12/17 05:19:01;;;;;;;70.68;51.63;;;16.60;59.50;;;;;;4950414;28;88925;-67
2021/12/17 05:21:27;;;;;;;69.72;52.10;;;16.70;59.70;;;;;;4951793;28;85991;-68
2021/12/17 05:23:52;;;;;;;70.47;51.72;;;16.60;59.60;;;;;;4950040;28;86133;-67
2021/12/17 05:26:20;;;;;;;69.35;51.67;;;16.60;59.80;;;;;;4948252;28;87149;-67
2021/12/17 05:28:47;;;;;;;71.00;52.13;;;16.60;59.80;;;;;;4949535;28;86235;-68
2021/12/17 05:31:15;;;;;;;71.18;52.20;;;16.60;59.80;;;;;;4957020;28;84836;-67
2021/12/17 05:33:40;;;;;;;70.38;51.47;;;16.70;59.90;;;;;;4932272;28;88208;-67
2021/12/17 05:36:06;;;;;;;70.55;51.85;;;16.80;59.80;;;;;;4951977;28;86123;-67
2021/12/17 05:38:32;;;;;;;70.88;51.90;;;16.80;59.90;;;;;;4946508;28;85164;-69
2021/12/17 05:40:58;;;;;;;70.38;51.95;;;16.90;59.60;;;;;;4936025;28;84744;-67
2021/12/17 05:43:24;;;;;;;71.07;51.97;;;17.00;60.00;;;;;;4950434;28;86384;-67
2021/12/17 05:48:23;;;;;;;72.13;51.83;;;17.20;59.60;;;;;;4940830;28;85842;-68
2021/12/17 05:50:52;;;;;;;70.95;51.97;;;17.30;59.20;;;;;;4938572;28;85348;-67
2021/12/17 05:53:18;;;;;;;71.68;51.67;;;17.40;59.10;;;;;;4946589;28;85702;-67
2021/12/17 05:55:44;;;;;;;71.25;52.25;;;17.50;58.60;;;;;;4950687;28;84679;-67
2021/12/17 05:58:10;;;;;;;71.50;52.35;;;17.60;58.40;;;;;;4936001;28;85823;-67
2021/12/17 06:00:38;;;;;;;71.63;52.08;;;17.70;58.10;;;;;;4937656;28;86653;-67
2021/12/17 06:03:04;;;;;;;70.18;52.08;;;17.80;58.00;;;;;;4943742;28;86240;-68
2021/12/17 06:05:30;;;;;;;72.82;51.78;;;17.80;57.80;;;;;;4947622;28;85309;-68
2021/12/17 06:07:56;;;;;;;72.13;52.13;;;17.90;57.60;;;;;;4941390;28;88987;-68
2021/12/17 06:10:22;;;;;;;72.00;52.22;;;17.90;57.50;;;;;;4940942;28;86354;-69
2021/12/17 06:12:48;;;;;;;72.15;52.17;;;18.00;57.20;;;;;;4945513;28;86682;-67
2021/12/17 06:15:17;;;;;;;72.60;52.47;;;18.00;57.00;;;;;;4942709;28;89600;-67
2021/12/17 06:17:43;;;;;;;74.65;52.63;;;18.10;56.90;;;;;;4932439;28;85631;-67
2021/12/17 06:20:11;;;;;;;73.72;52.67;;;18.10;56.90;;;;;;4945060;28;86408;-68
2021/12/17 06:22:37;;;;;;;71.53;52.63;;;18.10;56.80;;;;;;4932335;28;85885;-68
2021/12/17 06:25:05;;;;;;;70.93;52.50;;;18.20;56.60;;;;;;4944546;28;85549;-67
2021/12/17 06:27:31;;;;;;;72.22;52.20;;;18.20;56.60;;;;;;4933246;28;86352;-68
2021/12/17 06:29:57;;;;;;;73.07;52.03;;;18.20;56.50;;;;;;4937688;28;86304;-67
2021/12/17 06:32:24;;;;;;;73.80;52.67;;;18.20;56.60;;;;;;4939605;28;86728;-68
2021/12/17 06:34:50;;;;;;;73.15;53.08;;;18.10;56.50;;;;;;4932436;28;85191;-68
2021/12/17 06:37:17;;;;;;;71.45;52.53;;;18.10;56.70;;;;;;4939347;28;85576;-68
2021/12/17 06:39:44;;;;;;;73.03;52.58;;;18.20;56.60;;;;;;4924965;28;88125;-68
2021/12/17 06:42:10;;;;;;;74.82;53.08;;;18.10;56.50;;;;;;4930635;28;86070;-69
2021/12/17 06:44:37;;;;;;;77.35;53.25;;;18.20;56.70;;;;;;4946388;28;86334;-68
2021/12/17 06:55:02;;;;;;;75.72;52.95;;;18.10;56.50;;;;;;4951763;28;86071;-68
2021/12/17 07:34:42;;;;;;;;;;;17.60;57.40;;;;;;4949302;28;85502;-68
2021/12/17 07:39:34;;;;;;;72.25;52.10;;;17.60;57.70;;;;;;4934847;28;86232;-68
2021/12/17 07:41:59;;;;;;;72.43;52.58;;;17.60;57.70;;;;;;4941965;28;86526;-68
2021/12/17 07:44:25;;;;;;;73.15;52.75;;;17.60;57.70;;;;;;4945306;28;86527;-68
2021/12/17 07:46:51;;;;;;;75.82;52.17;;;17.50;57.80;;;;;;4947549;28;85683;-68
2021/12/17 07:49:18;;;;;;;75.38;52.85;;;17.60;57.90;;;;;;4938740;28;84945;-68
2021/12/17 07:51:44;;;;;;;72.43;52.08;;;17.50;57.80;;;;;;4942917;28;86122;-67
2021/12/17 07:54:09;;;;;;;72.07;52.08;;;17.50;57.60;;;;;;4944183;28;87919;-67
2021/12/17 07:56:37;;;;;;;72.90;52.42;;;17.50;58.00;;;;;;4946862;28;85324;-66
2021/12/17 07:59:07;;;;;;;72.43;52.15;;;17.60;57.70;;;;;;4943261;28;85734;-67
2021/12/17 08:01:35;;;;;;;70.85;51.70;;;17.60;57.80;;;;;;4946844;28;85906;-67
2021/12/17 08:04:00;;;;;;;73.20;52.25;;;17.60;57.70;;;;;;4943324;28;85381;-66
2021/12/17 08:06:26;;;;;;;73.03;52.28;;;17.70;58.00;;;;;;4938704;28;86059;-66
2021/12/17 08:08:52;;;;;;;72.30;51.83;;;17.80;57.80;;;;;;4945485;28;85003;-68
2021/12/17 08:11:18;;;;;;;72.30;52.15;;;17.80;57.80;;;;;;4936034;28;88311;-68
2021/12/17 08:13:45;;;;;;;75.90;52.42;;;17.90;57.40;;;;;;4954350;28;86767;-68
2021/12/17 08:32:06;;;;;;;82.35;52.97;;;18.80;57.00;;;;;;4941202;28;86527;-68
2021/12/17 08:34:32;;;;;;;82.57;53.35;;;18.90;57.30;;;;;;4945814;28;91525;-68
2021/12/17 08:36:58;;;;;;;85.82;53.33;;;18.90;57.00;;;;;;4945389;28;85730;-69
2021/12/17 08:39:29;;;;;;;77.75;53.17;;;19.00;56.80;;;;;;4940319;28;85235;-68
2021/12/17 08:41:55;;;;;;;82.85;53.17;;;19.00;56.40;;;;;;4940614;28;85614;-69
2021/12/17 08:44:22;;;;;;;85.40;53.47;;;19.00;56.40;;;;;;4934116;28;90897;-68
2021/12/17 08:46:48;;;;;;;83.65;53.67;;;19.10;56.20;;;;;;4943048;28;87042;-68
2021/12/17 08:49:14;;;;;;;83.05;53.38;;;19.00;56.00;;;;;;4942923;28;86978;-69
2021/12/17 08:51:42;;;;;;;82.05;53.78;;;19.00;55.80;;;;;;4950111;28;85703;-69
2021/12/17 08:54:08;;;;;;;79.22;53.72;;;19.00;55.80;;;;;;4939777;28;86301;-69
2021/12/17 08:56:37;;;;;;;85.90;53.58;;;19.00;55.80;;;;;;4950002;28;85335;-68
2021/12/17 08:59:05;;;;;;;79.93;53.40;;;18.90;55.60;;;;;;4945568;28;86324;-69
2021/12/17 09:01:31;;;;;;;82.25;53.40;;;19.00;55.40;;;;;;4956727;28;84968;-69
2021/12/17 09:03:57;;;;;;;83.25;53.20;;;18.90;55.20;;;;;;4946427;28;86662;-69
2021/12/17 09:06:26;;;;;;;83.68;53.80;;;18.90;55.10;;;;;;4954882;28;85061;-69
2021/12/17 09:08:54;;;;;;;81.05;53.55;;;18.90;55.00;;;;;;4945517;28;86140;-69
2021/12/17 09:11:24;;;;;;;82.75;53.60;;;18.90;55.50;;;;;;4946633;28;86300;-69
2021/12/17 09:13:51;;;;;;;88.10;54.17;;;18.90;54.70;;;;;;4953516;28;87687;-69
2021/12/17 09:16:20;;;;;;;86.97;54.08;;;18.80;54.50;;;;;;4955385;28;86352;-69
2021/12/17 09:18:47;;;;;;;85.38;53.83;;;18.80;54.50;;;;;;4949203;28;90265;-69
2021/12/17 09:21:12;;;;;;;81.45;53.78;;;18.80;54.50;;;;;;4952842;28;90695;-69
2021/12/17 09:23:39;;;;;;;82.90;53.95;;;18.80;54.50;;;;;;4947086;28;85531;-69
2021/12/17 09:26:04;;;;;;;96.03;53.95;;;18.80;54.40;;;;;;4945381;28;85568;-68
2021/12/17 09:28:31;;;;;;;83.07;54.33;;;18.80;54.40;;;;;;4947419;28;86264;-68
2021/12/17 09:30:58;;;;;;;87.32;54.28;;;18.70;54.20;;;;;;4951388;28;85841;-69
2021/12/17 09:33:25;;;;;;;86.25;54.33;;;18.70;54.20;;;;;;4951449;28;87248;-69
2021/12/17 09:35:51;;;;;;;86.20;54.03;;;18.60;54.50;;;;;;4953963;28;85498;-68
2021/12/17 09:38:18;;;;;;;91.72;54.90;;;18.60;54.80;;;;;;4953696;28;85815;-69
2021/12/17 09:40:44;;;;;;;93.70;54.75;;;18.60;55.30;;;;;;4938248;28;86756;-68
2021/12/17 09:43:10;;;;;;;88.18;54.45;;;18.60;55.60;;;;;;4943543;28;86047;-68
2021/12/17 09:45:37;;;;;;;88.97;54.72;;;18.60;55.60;;;;;;4948602;28;90987;-68
2021/12/17 09:48:03;;;;;;;85.75;55.17;;;18.50;55.40;;;;;;4944632;28;90190;-67
2021/12/17 09:50:29;;;;;;;81.68;54.65;;;18.50;55.20;;;;;;4939630;28;85614;-68
2021/12/17 09:52:56;;;;;;;83.25;54.13;;;18.50;55.10;;;;;;4946333;28;87063;-68
2021/12/17 09:55:22;;;;;;;80.97;54.47;;;18.40;55.00;;;;;;4942028;28;85595;-67
2021/12/17 09:57:48;;;;;;;86.95;54.53;;;18.40;54.80;;;;;;4941262;28;85154;-68
2021/12/17 10:00:23;;;;;;;82.22;54.53;;;18.40;54.70;;;;;;4934981;28;86207;-68
2021/12/17 10:02:50;;;;;;;80.72;53.92;;;18.40;54.80;;;;;;4925018;28;85627;-69
2021/12/17 10:05:19;;;;;;;86.03;55.05;;;18.40;54.60;;;;;;4941767;28;85531;-68
2021/12/17 10:07:51;;;;;;;83.25;54.65;;;18.40;54.50;;;;;;4939464;28;91582;-68
2021/12/17 10:10:17;;;;;;;84.10;54.90;;;18.30;54.70;;;;;;4932775;28;86306;-70
2021/12/17 10:12:42;;;;;;;83.28;54.92;;;18.30;55.00;;;;;;4935474;28;87386;-70
2021/12/17 10:15:11;;;;;;;80.18;53.85;;;18.30;55.00;;;;;;4937537;28;85764;-71
2021/12/17 10:18:00;;;;;;;88.97;55.25;;;18.30;55.20;;;;;;4934096;28;85643;-70
2021/12/17 10:20:32;;;;;;;99.20;55.72;;;18.30;55.00;;;;;;4947818;28;85826;-69
2021/12/17 10:23:09;;;;;;;96.75;56.03;;;18.30;54.90;;;;;;4947895;28;86071;-69
2021/12/17 10:25:43;;;;;;;96.82;56.08;;;18.20;54.90;;;;;;4944756;28;86038;-69
2021/12/17 10:28:09;;;;;;;99.63;54.97;;;18.20;55.00;;;;;;4939842;28;86070;-70
2021/12/17 10:30:38;;;;;;;93.80;55.80;;;18.20;55.00;;;;;;4941704;28;90607;-69
2021/12/17 10:33:06;;;;;;;92.32;56.05;;;18.20;55.10;;;;;;4947545;28;85235;-70
2021/12/17 10:35:34;;;;;;;97.18;56.00;;;18.20;55.30;;;;;;4946037;28;86712;-69
2021/12/17 10:38:06;;;;;;;90.15;55.92;;;18.20;55.40;;;;;;4948541;28;85375;-71
2021/12/17 10:40:42;;;;;;;;;;;18.20;55.80;;;;;;4939779;28;85871;-69
2021/12/17 10:43:26;;;;;;;91.57;55.42;;;18.30;56.20;;;;;;4948368;28;86963;-70
2021/12/17 10:46:04;;;;;;;85.88;55.33;;;18.20;56.40;;;;;;4943294;28;88122;-68
2021/12/17 10:48:50;;;;;;;93.70;55.20;;;18.20;56.80;;;;;;4947375;28;86801;-70
2021/12/17 10:54:11;;;;;;;86.70;56.05;;;18.20;58.00;;;;;;4943288;28;86224;-70
2021/12/17 10:56:45;;;;;;;95.50;56.92;;;18.20;59.50;;;;;;4937191;28;86064;-71
2021/12/17 10:59:18;;;;;;;86.78;55.78;;;18.20;61.70;;;;;;4937735;28;86689;-70
2021/12/17 11:01:45;;;;;;;88.78;56.58;;;18.20;62.50;;;;;;4966275;28;88329;-70
2021/12/17 11:04:21;;;;;;;86.13;56.45;;;18.10;63.00;;;;;;4948483;28;90020;-69
2021/12/17 11:07:07;;;;;;;87.85;55.90;;;18.10;63.70;;;;;;4955324;28;86030;-69
2021/12/17 11:09:53;;;;;;;85.53;55.35;;;18.10;64.00;;;;;;4943908;28;86142;-69
2021/12/17 11:12:31;;;;;;;81.35;55.55;;;18.10;64.40;;;;;;4946178;28;87071;-69
2021/12/17 11:15:14;;;;;;;85.88;55.10;;;18.10;64.70;;;;;;4950590;28;86966;-69
2021/12/17 11:17:42;;;;;;;82.70;55.30;;;18.10;64.50;;;;;;4950670;28;86213;-70
2021/12/17 11:20:13;;;;;;;82.38;55.35;;;18.00;64.60;;;;;;4950652;28;86036;-70
2021/12/17 11:22:41;;;;;;;86.28;55.20;;;18.00;64.90;;;;;;4952665;28;86215;-69
2021/12/17 11:25:07;;;;;;;80.18;54.58;;;18.00;65.10;;;;;;4944927;28;85919;-69
2021/12/17 11:27:33;;;;;;;84.93;55.20;;;17.90;64.90;;;;;;4949601;28;86060;-69
2021/12/17 11:30:00;;;;;;;78.43;54.70;;;17.90;64.80;;;;;;4942394;28;85975;-70
2021/12/17 11:32:26;;;;;;;80.80;54.30;;;17.90;64.70;;;;;;4957188;28;84990;-71
2021/12/17 11:34:53;;;;;;;83.20;54.58;;;17.90;64.60;;;;;;4929338;28;89225;-71
2021/12/17 11:37:20;;;;;;;87.45;54.78;;;17.90;64.70;;;;;;4944314;28;86219;-71
2021/12/17 11:39:54;;;;;;;82.97;54.25;;;17.90;65.10;;;;;;4937142;28;85928;-71
2021/12/17 11:42:34;;;;;;;85.60;54.95;;;17.90;64.90;;;;;;4941047;28;86708;-73
2021/12/17 11:47:48;;;;;;;82.07;54.60;;;18.00;63.90;;;;;;4955791;28;85618;-73
2021/12/17 11:50:16;;;;;;;81.88;54.78;;;18.00;63.20;;;;;;4957125;28;85655;-73
2021/12/17 11:52:48;;;;;;;81.57;54.90;;;18.00;63.10;;;;;;4952018;28;87532;-73
2021/12/17 11:55:26;;;;;;;80.13;54.10;;;18.00;62.80;;;;;;4947827;28;85790;-72
2021/12/17 11:57:58;;;;;;;83.38;54.80;;;18.10;62.70;;;;;;4958760;28;86442;-73
2021/12/17 12:00:41;;;;;;;82.82;54.53;;;18.00;62.50;;;;;;4957358;28;85495;-72
2021/12/17 12:03:19;;;;;;;84.28;54.80;;;18.00;62.30;;;;;;4969266;28;86293;-72
2021/12/17 12:05:47;;;;;;;80.53;54.25;;;18.00;62.10;;;;;;4956418;28;86960;-73
2021/12/17 12:08:46;;;;;;;78.40;54.35;;;18.00;62.20;;;;;;4958708;28;85748;-73
2021/12/17 12:11:22;;;;;;;80.30;54.80;;;18.00;62.10;;;;;;4945667;28;88807;-72
2021/12/17 12:13:51;;;;;;;82.78;54.58;;;18.00;62.10;;;;;;4951793;28;86289;-72
2021/12/17 12:16:19;;;;;;;81.05;53.90;;;18.00;62.10;;;;;;4953024;28;86204;-72
2021/12/17 12:18:49;;;;;;;80.47;54.15;;;18.00;62.10;;;;;;4955477;28;85488;-72
2021/12/17 12:21:18;;;;;;;79.72;54.20;;;18.00;62.00;;;;;;4958300;28;85549;-72
2021/12/17 12:23:53;;;;;;;79.13;53.63;;;18.00;62.00;;;;;;4971646;28;92035;-73
2021/12/17 12:26:25;;;;;;;80.55;54.42;;;18.00;61.80;;;;;;4956243;28;88314;-73
2021/12/17 12:28:56;;;;;;;79.63;53.97;;;17.90;61.70;;;;;;4949224;28;86720;-73
2021/12/17 12:31:31;;;;;;;79.83;54.03;;;17.90;61.70;;;;;;4951180;28;86300;-73
2021/12/17 12:34:06;;;;;;;76.63;53.42;;;18.00;61.60;;;;;;4951776;28;85773;-72
2021/12/17 12:37:15;;;;;;;77.13;53.53;;;17.90;61.30;;;;;;4956815;28;85478;-73
2021/12/17 12:39:50;;;;;;;79.75;53.95;;;17.90;61.20;;;;;;4952158;28;85276;-73
2021/12/17 12:42:36;;;;;;;79.00;54.50;;;17.90;61.20;;;;;;4947395;28;85638;-73
2021/12/17 12:45:07;;;;;;;80.28;54.08;;;17.90;61.20;;;;;;4953575;28;85282;-74
2021/12/17 12:47:36;;;;;;;83.85;53.72;;;17.80;61.20;;;;;;4952338;28;85744;-73
2021/12/17 12:50:07;;;;;;;76.03;53.30;;;17.80;61.10;;;;;;4938467;28;86459;-72
2021/12/17 12:52:32;;;;;;;77.30;53.75;;;17.80;61.10;;;;;;4951044;28;87736;-73
2021/12/17 12:55:00;;;;;;;77.78;53.70;;;17.80;61.00;;;;;;4950317;28;86074;-72
2021/12/17 12:57:30;;;;;;;77.88;53.45;;;17.90;60.70;;;;;;4948198;28;85908;-72
2021/12/17 12:59:59;;;;;;;78.00;54.00;;;17.90;60.70;;;;;;4962963;28;87557;-72
2021/12/17 13:02:26;;;;;;;79.03;54.53;;;18.00;60.60;;;;;;4950533;28;89150;-72
2021/12/17 13:04:57;;;;;;;81.72;54.30;;;18.10;60.30;;;;;;4953410;28;91221;-71
2021/12/17 13:07:42;;;;;;;81.72;54.42;;;18.20;60.00;;;;;;4947349;28;86471;-71
2021/12/17 13:10:12;;;;;;;77.32;53.33;;;18.30;59.70;;;;;;4942112;28;85636;-71
2021/12/17 13:12:39;;;;;;;79.00;54.60;;;18.50;59.70;;;;;;4956507;28;87098;-72
2021/12/17 13:15:41;;;;;;;82.22;54.45;;;18.60;59.40;;;;;;4949028;28;90994;-71
2021/12/17 13:21:19;;;;;;;81.70;55.55;;;19.00;58.50;;;;;;4947777;28;86900;-71
2021/12/17 13:23:54;;;;;;;83.55;54.92;;;19.20;58.20;;;;;;4951936;28;85509;-71
2021/12/17 13:26:23;;;;;;;83.53;54.53;;;19.40;57.70;;;;;;4948005;28;87237;-71
2021/12/17 13:29:09;;;;;;;81.80;54.78;;;19.60;57.30;;;;;;4944062;28;86201;-71
2021/12/17 13:31:48;;;;;;;82.07;54.58;;;19.80;56.90;;;;;;4942115;28;88975;-71
2021/12/17 13:34:40;;;;;;;82.40;55.15;;;20.00;56.60;;;;;;4940001;28;87294;-71
2021/12/17 13:37:13;;;;;;;81.50;55.10;;;20.10;56.00;;;;;;4942872;28;86414;-72
2021/12/17 13:39:40;;;;;;;81.55;54.83;;;20.30;55.80;;;;;;4941152;28;87944;-71
2021/12/17 13:42:07;;;;;;;81.15;54.70;;;20.40;55.30;;;;;;4934485;28;85952;-71
2021/12/17 13:44:38;;;;;;;77.95;53.78;;;20.50;55.10;;;;;;4936993;28;87277;-72
2021/12/17 13:47:29;;;;;;;81.75;55.38;;;20.60;54.80;;;;;;4941022;28;87360;-72
2021/12/17 13:50:12;;;;;;;;;;;20.70;54.90;;;;;;4948342;28;88706;-72
2021/12/17 13:52:56;;;;;;;78.72;54.30;;;20.70;54.20;;;;;;4951217;28;86279;-72
2021/12/17 13:55:38;;;;;;;80.63;55.00;;;20.80;54.40;;;;;;4948833;28;85751;-71
2021/12/17 13:58:10;;;;;;;77.93;54.20;;;20.80;54.30;;;;;;4940599;28;87245;-71
2021/12/17 14:00:39;;;;;;;81.75;55.15;;;20.80;54.20;;;;;;4936666;28;94232;-69
2021/12/17 14:03:08;;;;;;;83.88;55.58;;;20.80;53.90;;;;;;4946316;28;94527;-69
2021/12/17 14:05:43;;;;;;;79.70;54.55;;;20.90;53.90;;;;;;4936594;28;89831;-69
2021/12/17 14:08:14;;;;;;;83.05;56.03;;;20.80;53.90;;;;;;4955380;28;88057;-69
2021/12/17 14:10:41;;;;;;;87.07;57.00;;;20.80;53.60;;;;;;4938371;28;85745;-69
2021/12/17 14:13:19;;;;;;;83.90;56.75;;;20.80;53.40;;;;;;4930558;28;87693;-69
2021/12/17 14:15:45;;;;;;;81.78;55.75;;;20.80;53.50;;;;;;4937436;28;86770;-69
2021/12/17 14:18:16;;;;;;;83.50;56.03;;;20.70;53.80;;;;;;4929134;28;93366;-69
2021/12/17 14:20:48;;;;;;;82.38;55.50;;;20.70;53.90;;;;;;4941302;28;86375;-69
2021/12/17 14:23:22;;;;;;;80.97;55.65;;;20.60;53.90;;;;;;4950459;28;85742;-69
2021/12/17 14:25:53;;;;;;;81.20;55.53;;;20.60;53.90;;;;;;4948300;28;87764;-69
2021/12/17 14:28:23;;;;;;;81.95;55.63;;;20.50;54.00;;;;;;4929785;28;87316;-69
2021/12/17 14:30:58;;;;;;;79.97;55.33;;;20.50;54.30;;;;;;4955222;28;86566;-69
2021/12/17 14:33:30;;;;;;;80.63;55.72;;;20.40;54.40;;;;;;4941400;28;86271;-69
2021/12/17 14:35:59;;;;;;;79.80;55.30;;;20.30;54.50;;;;;;4944841;28;87546;-69
2021/12/17 14:38:46;;;;;;;81.57;55.95;;;20.20;54.50;;;;;;4941548;28;85775;-69
2021/12/17 14:41:17;;;;;;;79.50;54.65;;;20.20;54.90;;;;;;4955814;28;89016;-69
2021/12/17 14:43:51;;;;;;;80.10;55.72;;;20.20;54.90;;;;;;4946185;28;86802;-69
2021/12/17 14:46:28;;;;;;;78.57;55.15;;;20.10;54.70;;;;;;4946291;28;85361;-69
2021/12/17 15:02:56;;;;;;;79.30;55.15;;;19.80;55.50;;;;;;4950383;28;85320;-69
2021/12/17 15:05:24;;;;;;;77.68;54.85;;;19.80;55.60;;;;;;4954659;28;86907;-69
2021/12/17 15:07:51;;;;;;;79.43;55.28;;;19.70;55.60;;;;;;4943034;28;85838;-69
2021/12/17 15:10:19;;;;;;;77.90;54.65;;;19.70;55.70;;;;;;4951388;28;86692;-69
2021/12/17 15:12:45;;;;;;;78.88;54.85;;;19.70;55.70;;;;;;4938177;28;87921;-69
2021/12/17 15:15:35;;;;;;;76.95;54.22;;;19.60;55.70;;;;;;4950985;28;85427;-69
2021/12/17 15:18:02;;;;;;;78.80;53.83;;;19.60;55.80;;;;;;4950215;28;89089;-69
2021/12/17 15:20:31;;;;;;;77.53;54.47;;;19.50;55.80;;;;;;4948103;28;86735;-69
2021/12/17 15:22:59;;;;;;;77.03;54.42;;;19.50;55.90;;;;;;4946923;28;86269;-68
2021/12/17 15:25:26;;;;;;;77.07;54.38;;;19.40;56.10;;;;;;4953992;28;85753;-69
2021/12/17 15:27:52;;;;;;;77.53;54.33;;;19.40;55.90;;;;;;4953860;28;86492;-69
2021/12/17 15:30:26;;;;;;;78.20;54.13;;;19.40;56.30;;;;;;4946361;28;85813;-69
2021/12/17 15:32:53;;;;;;;78.53;54.92;;;19.30;56.20;;;;;;4954732;28;85313;-69
2021/12/17 15:35:22;;;;;;;76.93;55.00;;;19.20;56.20;;;;;;4935625;28;85984;-68
2021/12/17 15:37:51;;;;;;;79.05;55.17;;;19.20;56.40;;;;;;4948383;28;86301;-69
2021/12/17 15:40:17;;;;;;;75.95;53.55;;;19.20;56.60;;;;;;4946240;28;89602;-69
2021/12/17 15:42:43;;;;;;;75.05;53.63;;;19.10;56.70;;;;;;4945585;28;86570;-69
2021/12/17 15:45:10;;;;;;;75.80;54.50;;;19.10;56.90;;;;;;4949791;28;85673;-69
2021/12/17 15:47:36;;;;;;;76.63;54.25;;;19.10;56.70;;;;;;4948518;28;87861;-69
2021/12/17 15:50:05;;;;;;;78.32;54.28;;;19.00;57.00;;;;;;4947070;28;86382;-69
2021/12/17 15:52:33;;;;;;;77.82;54.20;;;19.00;57.00;;;;;;4950225;28;85355;-69
2021/12/17 15:54:59;;;;;;;76.75;53.88;;;18.90;57.20;;;;;;4949470;28;85833;-69
2021/12/17 15:57:24;;;;;;;77.45;53.92;;;18.90;57.10;;;;;;4940566;28;87043;-69
2021/12/17 15:59:50;;;;;;;75.75;54.15;;;18.80;57.10;;;;;;4944739;28;86349;-68
2021/12/17 16:02:16;;;;;;;76.43;54.33;;;18.80;57.40;;;;;;4946868;28;88079;-69